sensor_id;sensor_type;location;lat;lon;timestamp;pressure;altitude;pressure_sealevel;temperature;humidity
43488;BME280;29078;41.932;25.554;2023-02-13T00:02:09;101462.59;;;3.12;53.33
43488;BME280;29078;41.932;25.554;2023-02-13T00:04:34;101414.16;;;2.91;53.36
43488;BME280;29078;41.932;25.554;2023-02-13T00:07:00;101510.00;;;3.36;53.69
43488;BME280;29078;41.932;25.554;2023-02-13T00:09:25;101501.34;;;3.35;53.56
43488;BME280;29078;41.932;25.554;2023-02-13T00:11:50;101506.31;;;3.24;53.66
43488;BME280;29078;41.932;25.554;2023-02-13T00:14:16;101526.84;;;3.30;53.85
43488;BME280;29078;41.932;25.554;2023-02-13T00:16:41;101547.75;;;3.46;54.00
43488;BME280;29078;41.932;25.554;2023-02-13T00:19:07;101530.66;;;3.40;54.02
43488;BME280;29078;41.932;25.554;2023-02-13T00:21:32;101397.97;;;2.52;53.83
43488;BME280;29078;41.932;25.554;2023-02-13T00:23:58;101453.09;;;2.78;53.89
43488;BME280;29078;41.932;25.554;2023-02-13T00:26:23;101479.91;;;2.97;54.05
43488;BME280;29078;41.932;25.554;2023-02-13T00:28:49;101476.41;;;2.81;54.26
43488;BME280;29078;41.932;25.554;2023-02-13T00:31:16;101549.34;;;3.33;54.23
43488;BME280;29078;41.932;25.554;2023-02-13T00:33:42;101412.69;;;2.53;54.15
43488;BME280;29078;41.932;25.554;2023-02-13T00:36:10;101457.69;;;2.57;53.94
43488;BME280;29078;41.932;25.554;2023-02-13T00:38:37;101550.69;;;3.24;53.86
43488;BME280;29078;41.932;25.554;2023-02-13T00:41:04;101564.66;;;3.23;53.92
43488;BME280;29078;41.932;25.554;2023-02-13T00:43:29;101528.94;;;2.91;53.80
43488;BME280;29078;41.932;25.554;2023-02-13T00:45:55;101549.13;;;3.04;54.47
43488;BME280;29078;41.932;25.554;2023-02-13T00:48:23;101517.22;;;2.82;54.48
43488;BME280;29078;41.932;25.554;2023-02-13T00:50:48;101537.34;;;2.80;54.19
43488;BME280;29078;41.932;25.554;2023-02-13T00:53:13;101486.09;;;2.46;54.29
43488;BME280;29078;41.932;25.554;2023-02-13T00:55:39;101527.25;;;2.57;54.01
43488;BME280;29078;41.932;25.554;2023-02-13T00:58:04;101432.13;;;2.13;54.24
43488;BME280;29078;41.932;25.554;2023-02-13T01:00:30;101504.72;;;2.38;54.25
43488;BME280;29078;41.932;25.554;2023-02-13T01:02:55;101425.31;;;1.94;54.34
43488;BME280;29078;41.932;25.554;2023-02-13T01:05:20;101505.41;;;2.42;54.34
43488;BME280;29078;41.932;25.554;2023-02-13T01:07:46;101435.25;;;2.03;54.23
43488;BME280;29078;41.932;25.554;2023-02-13T01:10:11;101481.25;;;2.21;54.36
43488;BME280;29078;41.932;25.554;2023-02-13T01:12:37;101426.00;;;1.97;54.28
43488;BME280;29078;41.932;25.554;2023-02-13T01:15:03;101426.16;;;1.94;54.15
43488;BME280;29078;41.932;25.554;2023-02-13T01:17:29;101516.91;;;2.38;54.40
43488;BME280;29078;41.932;25.554;2023-02-13T01:19:54;101547.88;;;2.61;54.14
43488;BME280;29078;41.932;25.554;2023-02-13T01:22:19;101568.41;;;2.67;54.71
43488;BME280;29078;41.932;25.554;2023-02-13T01:24:45;101410.44;;;1.78;54.40
43488;BME280;29078;41.932;25.554;2023-02-13T01:27:10;101543.19;;;2.50;54.61
43488;BME280;29078;41.932;25.554;2023-02-13T01:29:36;101512.84;;;2.32;54.42
43488;BME280;29078;41.932;25.554;2023-02-13T01:32:01;101473.72;;;2.15;54.50
43488;BME280;29078;41.932;25.554;2023-02-13T01:34:30;101559.69;;;2.68;54.29
43488;BME280;29078;41.932;25.554;2023-02-13T01:36:55;101449.53;;;1.96;54.48
43488;BME280;29078;41.932;25.554;2023-02-13T01:39:20;101501.22;;;1.86;54.44
43488;BME280;29078;41.932;25.554;2023-02-13T01:41:46;101491.50;;;2.07;54.59
43488;BME280;29078;41.932;25.554;2023-02-13T01:48:05;101541.41;;;2.16;54.56
43488;BME280;29078;41.932;25.554;2023-02-13T01:50:32;101577.25;;;2.47;54.57
43488;BME280;29078;41.932;25.554;2023-02-13T01:53:10;101565.75;;;2.34;54.54
43488;BME280;29078;41.932;25.554;2023-02-13T01:55:44;101447.03;;;1.58;54.95
43488;BME280;29078;41.932;25.554;2023-02-13T01:58:14;101587.22;;;2.03;55.21
43488;BME280;29078;41.932;25.554;2023-02-13T02:00:44;101604.22;;;2.29;54.65
43488;BME280;29078;41.932;25.554;2023-02-13T02:03:27;101515.84;;;1.88;54.59
43488;BME280;29078;41.932;25.554;2023-02-13T02:05:56;101587.06;;;2.25;54.59
43488;BME280;29078;41.932;25.554;2023-02-13T02:08:22;101525.88;;;1.79;54.68
43488;BME280;29078;41.932;25.554;2023-02-13T02:10:48;101512.59;;;1.66;54.68
43488;BME280;29078;41.932;25.554;2023-02-13T02:13:19;101454.28;;;1.33;54.91
43488;BME280;29078;41.932;25.554;2023-02-13T02:15:46;101467.88;;;1.39;54.75
43488;BME280;29078;41.932;25.554;2023-02-13T02:18:20;101465.47;;;1.35;54.65
43488;BME280;29078;41.932;25.554;2023-02-13T02:21:32;101593.53;;;2.16;54.71
43488;BME280;29078;41.932;25.554;2023-02-13T02:32:18;101605.16;;;2.09;54.76
43488;BME280;29078;41.932;25.554;2023-02-13T02:37:31;101616.50;;;2.08;54.53
43488;BME280;29078;41.932;25.554;2023-02-13T02:43:14;101620.03;;;1.88;55.34
43488;BME280;29078;41.932;25.554;2023-02-13T02:48:42;101572.63;;;1.63;54.73
43488;BME280;29078;41.932;25.554;2023-02-13T02:51:38;101620.97;;;1.87;55.04
43488;BME280;29078;41.932;25.554;2023-02-13T02:57:29;101623.16;;;1.78;55.11
43488;BME280;29078;41.932;25.554;2023-02-13T03:00:17;101514.78;;;1.00;54.87
43488;BME280;29078;41.932;25.554;2023-02-13T03:03:04;101580.97;;;1.32;54.82
43488;BME280;29078;41.932;25.554;2023-02-13T03:05:49;101562.47;;;1.19;54.93
43488;BME280;29078;41.932;25.554;2023-02-13T03:08:35;101558.09;;;1.20;54.87
43488;BME280;29078;41.932;25.554;2023-02-13T03:11:19;101578.00;;;1.21;55.05
43488;BME280;29078;41.932;25.554;2023-02-13T03:14:05;101485.50;;;0.56;54.83
43488;BME280;29078;41.932;25.554;2023-02-13T03:16:32;101512.22;;;0.80;54.75
43488;BME280;29078;41.932;25.554;2023-02-13T03:19:46;101462.00;;;0.39;55.53
43488;BME280;29078;41.932;25.554;2023-02-13T03:25:17;101627.53;;;1.38;54.94
43488;BME280;29078;41.932;25.554;2023-02-13T03:28:02;101631.19;;;1.34;55.13
43488;BME280;29078;41.932;25.554;2023-02-13T03:33:43;101549.69;;;0.74;55.14
43488;BME280;29078;41.932;25.554;2023-02-13T03:36:20;101639.53;;;1.22;55.01
43488;BME280;29078;41.932;25.554;2023-02-13T03:41:59;101506.38;;;0.34;55.22
43488;BME280;29078;41.932;25.554;2023-02-13T03:46:59;101588.16;;;0.66;55.27
43488;BME280;29078;41.932;25.554;2023-02-13T03:49:32;101570.50;;;0.54;55.07
43488;BME280;29078;41.932;25.554;2023-02-13T03:55:08;101567.31;;;0.47;55.24
43488;BME280;29078;41.932;25.554;2023-02-13T03:57:58;101639.56;;;1.02;55.05
43488;BME280;29078;41.932;25.554;2023-02-13T04:00:49;101621.84;;;0.69;55.26
43488;BME280;29078;41.932;25.554;2023-02-13T04:03:21;101641.91;;;0.87;54.88
43488;BME280;29078;41.932;25.554;2023-02-13T04:05:52;101557.03;;;0.44;55.02
43488;BME280;29078;41.932;25.554;2023-02-13T04:08:20;101524.34;;;0.18;54.94
43488;BME280;29078;41.932;25.554;2023-02-13T04:11:09;101567.97;;;0.52;55.05
43488;BME280;29078;41.932;25.554;2023-02-13T04:13:42;101567.44;;;0.44;54.98
43488;BME280;29078;41.932;25.554;2023-02-13T04:16:15;101550.19;;;0.21;55.06
43488;BME280;29078;41.932;25.554;2023-02-13T04:18:42;101571.78;;;0.44;54.78
43488;BME280;29078;41.932;25.554;2023-02-13T04:21:09;101646.06;;;0.91;54.78
43488;BME280;29078;41.932;25.554;2023-02-13T04:23:34;101497.41;;;-0.43;55.18
43488;BME280;29078;41.932;25.554;2023-02-13T04:26:02;101625.84;;;0.78;54.88
43488;BME280;29078;41.932;25.554;2023-02-13T04:28:30;101630.06;;;0.80;54.92
43488;BME280;29078;41.932;25.554;2023-02-13T04:30:56;101628.44;;;0.78;55.10
43488;BME280;29078;41.932;25.554;2023-02-13T04:33:22;101656.78;;;0.84;55.02
43488;BME280;29078;41.932;25.554;2023-02-13T04:35:47;101556.97;;;0.25;54.75
43488;BME280;29078;41.932;25.554;2023-02-13T04:38:12;101481.94;;;-0.24;55.15
43488;BME280;29078;41.932;25.554;2023-02-13T04:40:38;101611.81;;;0.60;55.12
43488;BME280;29078;41.932;25.554;2023-02-13T04:43:03;101600.69;;;0.36;55.25
43488;BME280;29078;41.932;25.554;2023-02-13T04:45:29;101658.59;;;0.82;55.30
43488;BME280;29078;41.932;25.554;2023-02-13T04:47:56;101711.56;;;0.79;54.84
43488;BME280;29078;41.932;25.554;2023-02-13T04:50:22;101660.59;;;0.75;54.81
43488;BME280;29078;41.932;25.554;2023-02-13T04:52:51;101660.41;;;0.80;54.90
43488;BME280;29078;41.932;25.554;2023-02-13T04:55:17;101592.31;;;0.08;54.86
43488;BME280;29078;41.932;25.554;2023-02-13T04:57:42;101611.56;;;0.46;55.18
43488;BME280;29078;41.932;25.554;2023-02-13T05:00:08;101543.88;;;0.07;54.69
43488;BME280;29078;41.932;25.554;2023-02-13T05:02:34;101528.94;;;-0.10;54.72
43488;BME280;29078;41.932;25.554;2023-02-13T05:04:59;101622.56;;;0.30;54.81
43488;BME280;29078;41.932;25.554;2023-02-13T05:07:25;101615.63;;;0.31;55.09
43488;BME280;29078;41.932;25.554;2023-02-13T05:09:50;101561.22;;;0.06;54.76
43488;BME280;29078;41.932;25.554;2023-02-13T05:12:15;101605.47;;;0.25;55.06
43488;BME280;29078;41.932;25.554;2023-02-13T05:14:41;101658.84;;;0.54;54.97
43488;BME280;29078;41.932;25.554;2023-02-13T05:17:06;101623.28;;;0.34;55.22
43488;BME280;29078;41.932;25.554;2023-02-13T05:19:31;101633.94;;;0.28;55.16
43488;BME280;29078;41.932;25.554;2023-02-13T05:21:57;101582.19;;;0.02;54.99
43488;BME280;29078;41.932;25.554;2023-02-13T05:24:41;101516.34;;;-0.41;55.16
43488;BME280;29078;41.932;25.554;2023-02-13T05:27:06;101654.09;;;0.21;55.45
43488;BME280;29078;41.932;25.554;2023-02-13T05:29:31;101516.88;;;-0.55;55.26
43488;BME280;29078;41.932;25.554;2023-02-13T05:31:57;101638.16;;;0.09;55.48
43488;BME280;29078;41.932;25.554;2023-02-13T05:34:25;101534.53;;;-0.65;55.33
43488;BME280;29078;41.932;25.554;2023-02-13T05:36:51;101683.53;;;0.22;55.13
43488;BME280;29078;41.932;25.554;2023-02-13T05:39:16;101707.47;;;0.52;55.11
43488;BME280;29078;41.932;25.554;2023-02-13T05:41:43;101574.66;;;-0.28;55.25
43488;BME280;29078;41.932;25.554;2023-02-13T05:44:09;101710.41;;;0.43;55.33
43488;BME280;29078;41.932;25.554;2023-02-13T05:46:39;101713.09;;;0.41;55.64
43488;BME280;29078;41.932;25.554;2023-02-13T05:49:05;101707.03;;;0.41;55.78
43488;BME280;29078;41.932;25.554;2023-02-13T05:51:31;101645.00;;;-0.12;55.86
43488;BME280;29078;41.932;25.554;2023-02-13T05:53:57;101603.31;;;-0.31;56.04
43488;BME280;29078;41.932;25.554;2023-02-13T05:56:22;101662.81;;;-0.03;55.75
43488;BME280;29078;41.932;25.554;2023-02-13T05:58:54;101670.16;;;0.09;55.70
43488;BME280;29078;41.932;25.554;2023-02-13T06:01:21;101680.38;;;0.14;55.61
43488;BME280;29078;41.932;25.554;2023-02-13T06:03:47;101671.97;;;0.07;55.74
43488;BME280;29078;41.932;25.554;2023-02-13T06:06:13;101721.53;;;0.46;55.64
43488;BME280;29078;41.932;25.554;2023-02-13T06:08:39;101624.06;;;-0.08;55.85
43488;BME280;29078;41.932;25.554;2023-02-13T06:11:04;101585.59;;;-0.20;55.86
43488;BME280;29078;41.932;25.554;2023-02-13T06:13:30;101662.09;;;0.17;55.64
43488;BME280;29078;41.932;25.554;2023-02-13T06:15:56;101678.75;;;0.33;55.68
43488;BME280;29078;41.932;25.554;2023-02-13T06:18:22;101719.47;;;0.54;55.56
43488;BME280;29078;41.932;25.554;2023-02-13T06:20:47;101690.47;;;0.21;55.62
43488;BME280;29078;41.932;25.554;2023-02-13T06:23:13;101665.81;;;0.10;55.45
43488;BME280;29078;41.932;25.554;2023-02-13T06:25:39;101488.09;;;-0.94;55.87
43488;BME280;29078;41.932;25.554;2023-02-13T06:28:04;101596.31;;;-0.29;55.47
43488;BME280;29078;41.932;25.554;2023-02-13T06:30:30;101663.09;;;0.13;55.56
43488;BME280;29078;41.932;25.554;2023-02-13T06:32:56;101701.06;;;0.39;55.89
43488;BME280;29078;41.932;25.554;2023-02-13T06:35:21;101686.00;;;0.25;55.84
43488;BME280;29078;41.932;25.554;2023-02-13T06:37:47;101687.59;;;0.29;55.74
43488;BME280;29078;41.932;25.554;2023-02-13T06:40:14;101595.72;;;-0.14;55.56
43488;BME280;29078;41.932;25.554;2023-02-13T06:42:43;101736.47;;;0.63;55.73
43488;BME280;29078;41.932;25.554;2023-02-13T06:45:10;101715.38;;;0.71;55.64
43488;BME280;29078;41.932;25.554;2023-02-13T06:47:39;101395.69;;;-1.18;55.78
43488;BME280;29078;41.932;25.554;2023-02-13T06:50:05;101587.06;;;0.09;55.53
43488;BME280;29078;41.932;25.554;2023-02-13T06:52:31;101604.69;;;0.23;55.34
43488;BME280;29078;41.932;25.554;2023-02-13T06:54:56;101703.91;;;0.76;55.45
43488;BME280;29078;41.932;25.554;2023-02-13T06:57:22;101645.09;;;0.52;55.63
43488;BME280;29078;41.932;25.554;2023-02-13T06:59:47;101642.41;;;0.53;55.20
43488;BME280;29078;41.932;25.554;2023-02-13T07:02:13;101671.28;;;0.89;55.40
43488;BME280;29078;41.932;25.554;2023-02-13T07:04:38;101657.31;;;0.92;55.31
43488;BME280;29078;41.932;25.554;2023-02-13T07:07:04;101637.22;;;0.75;55.06
43488;BME280;29078;41.932;25.554;2023-02-13T07:09:30;101695.22;;;0.98;55.26
43488;BME280;29078;41.932;25.554;2023-02-13T07:11:56;101625.44;;;0.87;55.35
43488;BME280;29078;41.932;25.554;2023-02-13T07:14:22;101654.19;;;1.04;55.27
43488;BME280;29078;41.932;25.554;2023-02-13T07:16:48;101638.50;;;1.06;55.57
43488;BME280;29078;41.932;25.554;2023-02-13T07:19:13;101520.78;;;0.41;55.30
43488;BME280;29078;41.932;25.554;2023-02-13T07:21:38;101592.22;;;0.93;55.29
43488;BME280;29078;41.932;25.554;2023-02-13T07:24:04;101691.81;;;1.36;55.23
43488;BME280;29078;41.932;25.554;2023-02-13T07:26:30;101613.84;;;1.14;55.33
43488;BME280;29078;41.932;25.554;2023-02-13T07:28:55;101636.22;;;1.18;55.46
43488;BME280;29078;41.932;25.554;2023-02-13T07:31:21;101538.94;;;0.83;55.17
43488;BME280;29078;41.932;25.554;2023-02-13T07:33:49;101708.53;;;1.90;55.41
43488;BME280;29078;41.932;25.554;2023-02-13T07:36:15;101680.56;;;1.56;55.37
43488;BME280;29078;41.932;25.554;2023-02-13T07:38:40;101709.88;;;1.99;55.37
43488;BME280;29078;41.932;25.554;2023-02-13T07:41:05;101698.53;;;2.00;55.53
43488;BME280;29078;41.932;25.554;2023-02-13T07:43:31;101721.44;;;2.31;55.24
43488;BME280;29078;41.932;25.554;2023-02-13T07:45:58;101716.72;;;2.39;55.25
43488;BME280;29078;41.932;25.554;2023-02-13T07:48:24;101629.75;;;1.85;55.01
43488;BME280;29078;41.932;25.554;2023-02-13T07:50:54;101614.75;;;1.90;55.05
43488;BME280;29078;41.932;25.554;2023-02-13T07:53:19;101720.53;;;2.68;54.60
43488;BME280;29078;41.932;25.554;2023-02-13T07:55:45;101610.84;;;2.17;54.50
43488;BME280;29078;41.932;25.554;2023-02-13T07:58:10;101700.59;;;2.67;54.39
43488;BME280;29078;41.932;25.554;2023-02-13T08:00:36;101663.53;;;2.60;53.95
43488;BME280;29078;41.932;25.554;2023-02-13T08:03:02;101700.84;;;2.97;52.91
43488;BME280;29078;41.932;25.554;2023-02-13T08:05:29;101692.50;;;3.07;52.40
43488;BME280;29078;41.932;25.554;2023-02-13T08:07:56;101573.25;;;2.40;52.48
43488;BME280;29078;41.932;25.554;2023-02-13T08:10:21;101416.41;;;1.63;51.83
43488;BME280;29078;41.932;25.554;2023-02-13T08:13:06;101634.06;;;2.93;51.57
43488;BME280;29078;41.932;25.554;2023-02-13T08:15:32;101568.50;;;2.48;51.15
43488;BME280;29078;41.932;25.554;2023-02-13T08:17:57;101588.81;;;2.76;50.85
43488;BME280;29078;41.932;25.554;2023-02-13T08:20:23;101649.50;;;3.14;50.85
43488;BME280;29078;41.932;25.554;2023-02-13T08:22:48;101593.66;;;2.84;50.42
43488;BME280;29078;41.932;25.554;2023-02-13T08:25:14;101468.53;;;2.15;50.17
43488;BME280;29078;41.932;25.554;2023-02-13T08:27:39;101657.16;;;3.35;49.85
43488;BME280;29078;41.932;25.554;2023-02-13T08:30:06;101610.97;;;3.19;50.16
43488;BME280;29078;41.932;25.554;2023-02-13T08:32:31;101541.25;;;2.71;49.93
43488;BME280;29078;41.932;25.554;2023-02-13T08:34:57;101665.50;;;3.74;49.19
43488;BME280;29078;41.932;25.554;2023-02-13T08:37:22;101674.72;;;3.97;49.36
43488;BME280;29078;41.932;25.554;2023-02-13T08:39:48;101622.97;;;3.72;49.05
43488;BME280;29078;41.932;25.554;2023-02-13T08:42:13;101544.44;;;3.27;48.73
43488;BME280;29078;41.932;25.554;2023-02-13T08:44:39;101398.09;;;2.16;48.89
43488;BME280;29078;41.932;25.554;2023-02-13T08:47:07;101516.09;;;3.36;48.38
43488;BME280;29078;41.932;25.554;2023-02-13T08:49:32;101497.13;;;3.33;47.75
43488;BME280;29078;41.932;25.554;2023-02-13T08:51:59;101674.69;;;4.44;47.79
43488;BME280;29078;41.932;25.554;2023-02-13T08:54:25;101633.13;;;4.24;47.38
43488;BME280;29078;41.932;25.554;2023-02-13T08:56:51;101511.19;;;3.62;46.86
43488;BME280;29078;41.932;25.554;2023-02-13T08:59:17;101541.38;;;3.83;46.40
43488;BME280;29078;41.932;25.554;2023-02-13T09:01:42;101640.69;;;4.44;46.64
43488;BME280;29078;41.932;25.554;2023-02-13T09:04:08;101515.16;;;3.85;46.34
43488;BME280;29078;41.932;25.554;2023-02-13T09:06:33;101623.00;;;4.50;46.08
43488;BME280;29078;41.932;25.554;2023-02-13T09:08:59;101571.72;;;4.31;45.96
43488;BME280;29078;41.932;25.554;2023-02-13T09:11:24;101580.53;;;4.44;45.46
43488;BME280;29078;41.932;25.554;2023-02-13T09:13:52;101578.53;;;4.34;45.65
43488;BME280;29078;41.932;25.554;2023-02-13T09:16:18;101627.03;;;4.85;45.17
43488;BME280;29078;41.932;25.554;2023-02-13T09:18:46;101564.16;;;4.57;45.16
43488;BME280;29078;41.932;25.554;2023-02-13T09:21:12;101648.41;;;5.22;45.24
43488;BME280;29078;41.932;25.554;2023-02-13T09:23:39;101610.22;;;5.03;44.53
43488;BME280;29078;41.932;25.554;2023-02-13T09:26:07;101652.81;;;5.35;44.61
43488;BME280;29078;41.932;25.554;2023-02-13T09:28:33;101646.28;;;5.42;44.36
43488;BME280;29078;41.932;25.554;2023-02-13T09:31:04;101515.69;;;4.65;44.39
43488;BME280;29078;41.932;25.554;2023-02-13T09:33:30;101516.81;;;4.75;44.17
43488;BME280;29078;41.932;25.554;2023-02-13T09:35:55;101641.78;;;5.59;44.39
43488;BME280;29078;41.932;25.554;2023-02-13T09:38:20;101568.94;;;5.23;43.99
43488;BME280;29078;41.932;25.554;2023-02-13T09:40:53;101515.69;;;4.94;43.73
43488;BME280;29078;41.932;25.554;2023-02-13T09:43:57;101618.28;;;5.71;43.60
43488;BME280;29078;41.932;25.554;2023-02-13T09:46:38;101553.03;;;5.26;43.52
43488;BME280;29078;41.932;25.554;2023-02-13T09:49:10;101617.31;;;5.87;43.71
43488;BME280;29078;41.932;25.554;2023-02-13T09:51:36;101434.09;;;4.87;43.61
43488;BME280;29078;41.932;25.554;2023-02-13T09:54:05;101556.31;;;5.70;44.05
43488;BME280;29078;41.932;25.554;2023-02-13T09:57:02;101589.97;;;6.05;43.37
43488;BME280;29078;41.932;25.554;2023-02-13T09:59:38;101607.94;;;6.38;43.35
43488;BME280;29078;41.932;25.554;2023-02-13T10:05:29;101596.22;;;6.56;42.49
43488;BME280;29078;41.932;25.554;2023-02-13T10:16:16;101438.94;;;6.15;42.42
43488;BME280;29078;41.932;25.554;2023-02-13T10:18:55;101573.69;;;7.05;42.66
43488;BME280;29078;41.932;25.554;2023-02-13T10:21:26;101451.66;;;6.34;42.15
43488;BME280;29078;41.932;25.554;2023-02-13T10:24:11;101479.06;;;6.43;42.51
43488;BME280;29078;41.932;25.554;2023-02-13T10:26:40;101582.72;;;7.13;42.04
43488;BME280;29078;41.932;25.554;2023-02-13T10:32:01;101475.31;;;6.72;42.30
43488;BME280;29078;41.932;25.554;2023-02-13T10:34:35;101518.84;;;7.13;41.94
43488;BME280;29078;41.932;25.554;2023-02-13T10:37:08;101493.97;;;6.93;42.31
43488;BME280;29078;41.932;25.554;2023-02-13T10:39:36;101446.38;;;6.97;41.74
43488;BME280;29078;41.932;25.554;2023-02-13T10:42:15;101525.28;;;7.58;41.44
43488;BME280;29078;41.932;25.554;2023-02-13T10:48:21;101514.38;;;7.75;41.42
43488;BME280;29078;41.932;25.554;2023-02-13T10:54:12;101404.63;;;7.18;41.27
43488;BME280;29078;41.932;25.554;2023-02-13T10:59:43;101494.75;;;7.92;41.52
43488;BME280;29078;41.932;25.554;2023-02-13T11:02:27;101484.00;;;7.95;41.43
43488;BME280;29078;41.932;25.554;2023-02-13T11:05:00;101475.16;;;7.96;41.23
43488;BME280;29078;41.932;25.554;2023-02-13T11:07:26;101308.56;;;7.03;40.96
43488;BME280;29078;41.932;25.554;2023-02-13T11:09:57;101459.41;;;8.07;40.89
43488;BME280;29078;41.932;25.554;2023-02-13T11:12:29;101437.84;;;7.91;40.22
43488;BME280;29078;41.932;25.554;2023-02-13T11:15:04;101453.69;;;8.13;40.62
43488;BME280;29078;41.932;25.554;2023-02-13T11:17:34;101449.97;;;8.16;40.54
43488;BME280;29078;41.932;25.554;2023-02-13T11:20:04;101421.72;;;8.07;40.60
43488;BME280;29078;41.932;25.554;2023-02-13T11:22:34;101449.91;;;8.28;40.42
43488;BME280;29078;41.932;25.554;2023-02-13T11:27:42;101442.50;;;8.22;39.79
43488;BME280;29078;41.932;25.554;2023-02-13T11:30:36;101427.06;;;8.29;40.11
43488;BME280;29078;41.932;25.554;2023-02-13T11:33:26;101426.00;;;8.32;40.21
43488;BME280;29078;41.932;25.554;2023-02-13T11:36:05;101425.41;;;8.28;39.98
43488;BME280;29078;41.932;25.554;2023-02-13T11:38:31;101415.59;;;8.30;40.07
43488;BME280;29078;41.932;25.554;2023-02-13T11:41:22;101366.00;;;8.02;40.34
43488;BME280;29078;41.932;25.554;2023-02-13T11:43:55;101406.97;;;8.28;40.55
43488;BME280;29078;41.932;25.554;2023-02-13T11:46:27;101402.78;;;8.25;40.48
43488;BME280;29078;41.932;25.554;2023-02-13T11:49:03;101397.41;;;8.27;40.34
43488;BME280;29078;41.932;25.554;2023-02-13T11:51:41;101362.28;;;7.93;40.07
43488;BME280;29078;41.932;25.554;2023-02-13T11:54:40;101399.56;;;8.22;40.37
43488;BME280;29078;41.932;25.554;2023-02-13T11:59:47;101370.66;;;7.98;40.60
43488;BME280;29078;41.932;25.554;2023-02-13T12:02:20;101394.13;;;8.12;40.81
43488;BME280;29078;41.932;25.554;2023-02-13T12:04:48;101338.34;;;7.85;40.69
43488;BME280;29078;41.932;25.554;2023-02-13T12:07:18;101317.06;;;7.77;41.04
43488;BME280;29078;41.932;25.554;2023-02-13T12:09:47;101280.81;;;7.58;41.14
43488;BME280;29078;41.932;25.554;2023-02-13T12:12:24;101263.25;;;7.47;41.41
43488;BME280;29078;41.932;25.554;2023-02-13T12:14:52;101302.38;;;7.74;40.94
43488;BME280;29078;41.932;25.554;2023-02-13T12:17:22;101319.31;;;7.70;41.33
43488;BME280;29078;41.932;25.554;2023-02-13T12:19:50;101315.84;;;7.70;41.58
43488;BME280;29078;41.932;25.554;2023-02-13T12:22:32;101375.94;;;8.09;41.95
43488;BME280;29078;41.932;25.554;2023-02-13T12:28:16;101360.41;;;8.06;41.69
43488;BME280;29078;41.932;25.554;2023-02-13T12:36:38;101357.53;;;8.09;41.80
43488;BME280;29078;41.932;25.554;2023-02-13T12:39:33;101351.53;;;8.07;41.78
43488;BME280;29078;41.932;25.554;2023-02-13T12:47:24;101316.25;;;7.87;41.48
43488;BME280;29078;41.932;25.554;2023-02-13T12:52:51;101339.59;;;8.14;41.31
43488;BME280;29078;41.932;25.554;2023-02-13T13:00:48;101326.69;;;8.11;40.91
43488;BME280;29078;41.932;25.554;2023-02-13T13:03:42;101328.34;;;8.12;40.56
43488;BME280;29078;41.932;25.554;2023-02-13T13:11:48;101326.78;;;8.10;40.58
43488;BME280;29078;41.932;25.554;2023-02-13T13:16:46;101315.78;;;8.16;40.61
43488;BME280;29078;41.932;25.554;2023-02-13T13:19:45;101309.81;;;8.14;40.63
43488;BME280;29078;41.932;25.554;2023-02-13T13:27:43;101262.44;;;7.80;40.44
43488;BME280;29078;41.932;25.554;2023-02-13T13:30:23;101247.28;;;7.84;39.93
43488;BME280;29078;41.932;25.554;2023-02-13T13:32:55;101303.03;;;8.22;39.97
43488;BME280;29078;41.932;25.554;2023-02-13T13:35:22;101223.13;;;7.68;39.96
43488;BME280;29078;41.932;25.554;2023-02-13T13:37:53;101293.94;;;8.26;40.08
43488;BME280;29078;41.932;25.554;2023-02-13T13:45:45;101294.63;;;8.17;40.47
43488;BME280;29078;41.932;25.554;2023-02-13T13:51:16;101297.38;;;8.16;40.00
43488;BME280;29078;41.932;25.554;2023-02-13T13:59:54;101183.34;;;7.61;39.38
43488;BME280;29078;41.932;25.554;2023-02-13T14:07:41;101240.34;;;8.05;39.21
43488;BME280;29078;41.932;25.554;2023-02-13T14:23:42;101295.47;;;8.63;38.07
43488;BME280;29078;41.932;25.554;2023-02-13T14:36:42;101193.25;;;8.36;38.22
43488;BME280;29078;41.932;25.554;2023-02-13T14:44:21;101196.75;;;9.21;36.86
43488;BME280;29078;41.932;25.554;2023-02-13T14:46:49;101257.56;;;9.71;36.57
43488;BME280;29078;41.932;25.554;2023-02-13T14:49:22;101257.34;;;9.63;37.01
43488;BME280;29078;41.932;25.554;2023-02-13T14:51:50;101247.59;;;9.53;36.66
43488;BME280;29078;41.932;25.554;2023-02-13T14:56:45;101198.22;;;8.93;37.49
43488;BME280;29078;41.932;25.554;2023-02-13T14:59:15;101223.22;;;8.99;37.74
43488;BME280;29078;41.932;25.554;2023-02-13T15:01:56;101250.47;;;9.09;38.40
43488;BME280;29078;41.932;25.554;2023-02-13T15:04:30;101246.28;;;9.06;38.46
43488;BME280;29078;41.932;25.554;2023-02-13T15:07:01;101207.34;;;8.78;38.60
43488;BME280;29078;41.932;25.554;2023-02-13T15:10:01;101243.59;;;8.85;38.77
43488;BME280;29078;41.932;25.554;2023-02-13T15:12:31;101246.84;;;8.78;39.39
43488;BME280;29078;41.932;25.554;2023-02-13T15:14:57;101175.16;;;8.31;39.24
43488;BME280;29078;41.932;25.554;2023-02-13T15:17:31;101106.00;;;7.86;39.42
43488;BME280;29078;41.932;25.554;2023-02-13T15:20:23;101158.31;;;8.11;39.75
43488;BME280;29078;41.932;25.554;2023-02-13T15:22:50;100909.72;;;6.43;39.62
43488;BME280;29078;41.932;25.554;2023-02-13T15:27:51;101237.75;;;8.39;39.58
43488;BME280;29078;41.932;25.554;2023-02-13T15:30:27;101238.44;;;8.29;40.21
43488;BME280;29078;41.932;25.554;2023-02-13T15:37:51;101241.06;;;8.07;40.30
43488;BME280;29078;41.932;25.554;2023-02-13T15:40:32;101241.53;;;8.01;40.63
43488;BME280;29078;41.932;25.554;2023-02-13T15:42:59;101123.78;;;7.26;40.64
43488;BME280;29078;41.932;25.554;2023-02-13T15:45:27;101237.72;;;7.94;41.01
43488;BME280;29078;41.932;25.554;2023-02-13T15:47:54;101239.03;;;7.88;41.23
43488;BME280;29078;41.932;25.554;2023-02-13T15:50:33;101237.00;;;7.81;40.79